Time,TemperatureF,DewpointF,PressureIn,WindDirection,WindDirectionDegrees,WindSpeedMPH,WindSpeedGustMPH,Humidity,HourlyPrecipIn,Conditions,Clouds,dailyrainin,SoftwareType,DateUTC
2013-12-13 00:03:00,51.1,50.5,29.89,SW,225,3.0,6.0,98,0.00,,,0.35,meteohub,2013-12-13 00:03:00,
2013-12-13 00:09:00,51.1,50.5,29.89,SW,225,2.0,6.0,98,0.00,,,0.00,meteohub,2013-12-13 00:09:00,
2013-12-13 00:14:00,51.1,50.5,29.89,SW,225,0.0,5.0,98,0.00,,,0.00,meteohub,2013-12-13 00:14:00,
2013-12-13 00:19:00,51.1,50.5,29.89,SW,225,4.0,4.0,98,0.00,,,0.00,meteohub,2013-12-13 00:19:00,
2013-12-13 00:24:00,51.1,50.5,29.89,SW,225,3.0,4.0,98,0.00,,,0.00,meteohub,2013-12-13 00:24:00,
2013-12-13 00:29:00,51.3,50.7,29.89,WSW,247,3.0,6.0,98,0.00,,,0.00,meteohub,2013-12-13 00:29:00,
2013-12-13 00:34:00,51.3,50.7,29.89,SSW,202,4.0,6.0,98,0.00,,,0.00,meteohub,2013-12-13 00:34:00,
2013-12-13 00:39:00,51.3,50.7,29.89,WSW,247,2.0,6.0,98,0.00,,,0.00,meteohub,2013-12-13 00:39:00,
2013-12-13 00:44:00,51.3,50.7,29.89,SW,225,1.0,6.0,98,0.00,,,0.00,meteohub,2013-12-13 00:44:00,
2013-12-13 00:49:00,51.3,50.7,29.86,WSW,247,0.0,7.0,98,0.00,,,0.00,meteohub,2013-12-13 00:49:00,
2013-12-13 00:54:00,51.3,50.7,29.86,South,180,2.0,7.0,98,0.00,,,0.00,meteohub,2013-12-13 00:54:00,
2013-12-13 01:00:00,51.4,50.9,29.86,SSW,202,5.0,7.0,98,0.00,,,0.00,meteohub,2013-12-13 01:00:00,
2013-12-13 01:05:00,51.3,50.7,29.86,SW,225,0.0,10.0,98,0.01,,,0.01,meteohub,2013-12-13 01:05:00,
2013-12-13 01:10:00,51.3,50.7,29.86,SW,225,3.0,10.0,98,0.01,,,0.01,meteohub,2013-12-13 01:10:00,
2013-12-13 01:16:00,51.3,50.7,29.86,SSW,202,4.0,6.0,98,0.01,,,0.01,meteohub,2013-12-13 01:16:00,
2013-12-13 01:21:00,51.3,50.7,29.86,South,180,1.0,6.0,98,0.00,,,0.01,meteohub,2013-12-13 01:21:00,
2013-12-13 01:26:00,51.3,50.7,29.86,SW,225,3.0,6.0,98,0.00,,,0.01,meteohub,2013-12-13 01:26:00,
2013-12-13 01:31:00,51.3,50.7,29.86,SSW,202,4.0,6.0,98,0.00,,,0.01,meteohub,2013-12-13 01:31:00,
2013-12-13 01:36:00,51.4,50.9,29.86,WSW,247,6.0,8.0,98,0.00,,,0.01,meteohub,2013-12-13 01:36:00,
2013-12-13 01:41:00,51.4,50.9,29.86,WSW,247,3.0,8.0,98,0.00,,,0.01,meteohub,2013-12-13 01:41:00,
2013-12-13 01:46:00,51.4,50.9,29.86,SW,225,4.0,8.0,98,0.00,,,0.01,meteohub,2013-12-13 01:46:00,
2013-12-13 01:51:00,51.3,50.7,29.86,SW,225,3.0,8.0,98,0.00,,,0.01,meteohub,2013-12-13 01:51:00,
2013-12-13 01:56:00,51.3,50.7,29.86,WSW,247,3.0,5.0,98,0.00,,,0.01,meteohub,2013-12-13 01:56:00,
2013-12-13 02:01:00,51.4,50.9,29.86,South,180,6.0,8.0,98,0.00,,,0.01,meteohub,2013-12-13 02:01:00,
2013-12-13 02:06:00,51.4,50.9,29.86,SW,225,12.0,13.0,98,0.00,,,0.01,meteohub,2013-12-13 02:06:00,
2013-12-13 02:11:00,51.8,51.3,29.86,SW,225,13.0,15.0,98,0.00,,,0.01,meteohub,2013-12-13 02:11:00,
2013-12-13 02:17:00,52.0,51.4,29.86,WSW,247,15.0,15.0,98,0.00,,,0.01,meteohub,2013-12-13 02:17:00,
2013-12-13 02:22:00,52.0,51.4,29.86,SW,225,11.0,15.0,98,0.00,,,0.01,meteohub,2013-12-13 02:22:00,
2013-12-13 02:27:00,52.0,51.4,29.86,WSW,247,11.0,15.0,98,0.00,,,0.01,meteohub,2013-12-13 02:27:00,
2013-12-13 02:32:00,52.2,51.6,29.86,SW,225,6.0,15.0,98,0.00,,,0.01,meteohub,2013-12-13 02:32:00,
2013-12-13 02:37:00,52.2,51.6,29.86,SW,225,9.0,15.0,98,0.00,,,0.01,meteohub,2013-12-13 02:37:00,
2013-12-13 02:42:00,52.2,51.6,29.86,South,180,8.0,15.0,98,0.00,,,0.01,meteohub,2013-12-13 02:42:00,
2013-12-13 02:47:00,52.2,51.6,29.86,WSW,247,6.0,11.0,98,0.00,,,0.01,meteohub,2013-12-13 02:47:00,
2013-12-13 02:52:00,52.2,51.6,29.83,SW,225,6.0,11.0,98,0.00,,,0.01,meteohub,2013-12-13 02:52:00,
2013-12-13 02:57:00,52.2,51.6,29.83,SSW,202,6.0,11.0,98,0.00,,,0.01,meteohub,2013-12-13 02:57:00,
2013-12-13 03:02:00,52.2,51.6,29.83,SW,225,4.0,11.0,98,0.00,,,0.01,meteohub,2013-12-13 03:02:00,
2013-12-13 03:07:00,52.2,51.6,29.83,SSW,202,6.0,11.0,98,0.00,,,0.01,meteohub,2013-12-13 03:07:00,
2013-12-13 03:12:00,52.2,51.6,29.83,SSW,202,5.0,11.0,98,0.00,,,0.01,meteohub,2013-12-13 03:12:00,
2013-12-13 03:17:00,52.2,51.6,29.83,WSW,247,7.0,10.0,98,0.00,,,0.01,meteohub,2013-12-13 03:17:00,
2013-12-13 03:22:00,52.2,51.6,29.83,SW,225,6.0,10.0,98,0.00,,,0.01,meteohub,2013-12-13 03:22:00,
2013-12-13 03:27:00,52.2,51.6,29.83,SW,225,10.0,10.0,98,0.00,,,0.01,meteohub,2013-12-13 03:27:00,
2013-12-13 03:32:00,52.2,51.6,29.83,SSW,202,4.0,11.0,98,0.00,,,0.02,meteohub,2013-12-13 03:32:00,
2013-12-13 03:37:00,52.2,51.6,29.83,SSW,202,6.0,11.0,98,0.00,,,0.02,meteohub,2013-12-13 03:37:00,
2013-12-13 03:42:00,52.2,51.6,29.83,SSW,202,6.0,11.0,98,0.01,,,0.02,meteohub,2013-12-13 03:42:00,
2013-12-13 03:48:00,52.2,51.6,29.83,SW,225,6.0,15.0,98,0.01,,,0.02,meteohub,2013-12-13 03:48:00,
2013-12-13 03:53:00,52.2,51.6,29.83,SW,225,6.0,15.0,98,0.01,,,0.02,meteohub,2013-12-13 03:53:00,
2013-12-13 03:58:00,52.2,51.6,29.83,WSW,247,10.0,15.0,98,0.01,,,0.02,meteohub,2013-12-13 03:58:00,
2013-12-13 04:03:00,52.3,51.8,29.83,South,180,10.0,14.0,98,0.01,,,0.02,meteohub,2013-12-13 04:03:00,
2013-12-13 04:08:00,52.3,51.8,29.83,SSW,202,11.0,14.0,98,0.01,,,0.02,meteohub,2013-12-13 04:08:00,
2013-12-13 04:13:00,52.5,52.0,29.83,SSW,202,13.0,16.0,98,0.01,,,0.02,meteohub,2013-12-13 04:13:00,
2013-12-13 04:18:00,52.7,52.2,29.83,SSW,202,12.0,21.0,98,0.01,,,0.02,meteohub,2013-12-13 04:18:00,
2013-12-13 04:23:00,52.5,52.0,29.81,SSW,202,13.0,21.0,98,0.01,,,0.02,meteohub,2013-12-13 04:23:00,
2013-12-13 04:28:00,52.5,52.0,29.81,SSW,202,16.0,21.0,98,0.01,,,0.02,meteohub,2013-12-13 04:28:00,
2013-12-13 04:33:00,52.5,52.0,29.81,SSW,202,17.0,18.0,98,0.00,,,0.02,meteohub,2013-12-13 04:33:00,
2013-12-13 04:38:00,52.5,52.0,29.81,SSW,202,9.0,23.0,98,0.00,,,0.02,meteohub,2013-12-13 04:38:00,
2013-12-13 04:43:00,52.5,52.0,29.81,SW,225,13.0,23.0,98,0.00,,,0.02,meteohub,2013-12-13 04:43:00,
2013-12-13 04:49:00,52.5,52.0,29.81,SSW,202,9.0,23.0,98,0.00,,,0.02,meteohub,2013-12-13 04:49:00,
2013-12-13 04:54:00,52.5,52.0,29.81,SW,225,11.0,22.0,98,0.00,,,0.02,meteohub,2013-12-13 04:54:00,
2013-12-13 04:59:00,52.5,52.0,29.81,SW,225,16.0,17.0,98,0.00,,,0.02,meteohub,2013-12-13 04:59:00,
2013-12-13 05:01:00,52.5,52.0,29.81,SW,225,13.0,17.0,98,0.00,,,0.02,meteohub,2013-12-13 05:01:00,
2013-12-13 05:02:00,52.5,52.0,29.81,SW,225,23.0,23.0,98,0.00,,,0.02,meteohub,2013-12-13 05:02:00,
2013-12-13 05:06:00,52.7,52.2,29.81,SSW,202,8.0,23.0,98,0.00,,,0.02,meteohub,2013-12-13 05:06:00,
2013-12-13 05:10:00,52.5,52.0,29.81,SW,225,10.0,23.0,98,0.00,,,0.02,meteohub,2013-12-13 05:10:00,
2013-12-13 05:15:00,52.5,52.0,29.81,WSW,247,11.0,23.0,98,0.00,,,0.02,meteohub,2013-12-13 05:15:00,
2013-12-13 05:20:00,52.5,52.0,29.81,SSW,202,13.0,22.0,98,0.00,,,0.02,meteohub,2013-12-13 05:20:00,
2013-12-13 05:25:00,52.5,52.0,29.81,SSW,202,14.0,22.0,98,0.00,,,0.02,meteohub,2013-12-13 05:25:00,
2013-12-13 05:30:00,52.5,52.0,29.81,South,180,9.0,18.0,98,0.00,,,0.02,meteohub,2013-12-13 05:30:00,
2013-12-13 05:35:00,52.5,52.0,29.81,SSW,202,6.0,18.0,98,0.00,,,0.02,meteohub,2013-12-13 05:35:00,
2013-12-13 05:40:00,52.3,51.8,29.81,SW,225,7.0,18.0,98,0.00,,,0.02,meteohub,2013-12-13 05:40:00,
2013-12-13 05:45:00,52.3,51.8,29.81,NW,315,8.0,17.0,98,0.00,,,0.02,meteohub,2013-12-13 05:45:00,
2013-12-13 05:51:00,52.3,51.8,29.81,SW,225,5.0,17.0,98,0.00,,,0.02,meteohub,2013-12-13 05:51:00,
2013-12-13 05:56:00,52.3,51.8,29.81,South,180,9.0,13.0,98,0.00,,,0.02,meteohub,2013-12-13 05:56:00,
2013-12-13 06:01:00,52.3,51.8,29.81,SSW,202,9.0,11.0,98,0.00,,,0.02,meteohub,2013-12-13 06:01:00,
2013-12-13 06:06:00,52.3,51.8,29.78,SE,135,7.0,12.0,98,0.00,,,0.02,meteohub,2013-12-13 06:06:00,
2013-12-13 06:11:00,52.3,51.8,29.78,South,180,6.0,15.0,98,0.00,,,0.02,meteohub,2013-12-13 06:11:00,
2013-12-13 06:16:00,52.3,51.4,29.78,SW,225,11.0,15.0,97,0.00,,,0.02,meteohub,2013-12-13 06:16:00,
2013-12-13 06:21:00,52.3,51.4,29.78,South,180,9.0,16.0,97,0.00,,,0.02,meteohub,2013-12-13 06:21:00,
2013-12-13 06:26:00,52.2,51.3,29.78,South,180,6.0,16.0,97,0.00,,,0.02,meteohub,2013-12-13 06:26:00,
2013-12-13 06:31:00,52.2,51.3,29.78,SSW,202,10.0,16.0,97,0.00,,,0.02,meteohub,2013-12-13 06:31:00,
2013-12-13 06:36:00,52.2,51.3,29.78,South,180,6.0,11.0,97,0.00,,,0.02,meteohub,2013-12-13 06:36:00,
2013-12-13 06:41:00,52.0,51.1,29.78,SSW,202,4.0,11.0,97,0.00,,,0.02,meteohub,2013-12-13 06:41:00,
2013-12-13 06:46:00,52.0,51.1,29.78,WNW,292,4.0,11.0,97,0.00,,,0.02,meteohub,2013-12-13 06:46:00,
2013-12-13 06:51:00,52.0,51.1,29.78,SSW,202,1.0,10.0,97,0.00,,,0.02,meteohub,2013-12-13 06:51:00,
2013-12-13 06:57:00,51.8,50.9,29.78,SSW,202,7.0,10.0,97,0.00,,,0.02,meteohub,2013-12-13 06:57:00,
2013-12-13 07:02:00,51.8,50.9,29.78,SSW,202,3.0,10.0,97,0.00,,,0.02,meteohub,2013-12-13 07:02:00,
2013-12-13 07:07:00,51.8,50.9,29.78,SSE,157,5.0,10.0,97,0.00,,,0.02,meteohub,2013-12-13 07:07:00,
2013-12-13 07:12:00,52.0,51.1,29.78,South,180,5.0,10.0,97,0.00,,,0.02,meteohub,2013-12-13 07:12:00,
2013-12-13 07:17:00,52.0,51.1,29.78,SSW,202,4.0,11.0,97,0.00,,,0.02,meteohub,2013-12-13 07:17:00,
2013-12-13 07:22:00,52.2,51.3,29.75,SSW,202,8.0,12.0,97,0.00,,,0.02,meteohub,2013-12-13 07:22:00,
2013-12-13 07:27:00,52.2,51.3,29.75,SW,225,6.0,13.0,97,0.00,,,0.02,meteohub,2013-12-13 07:27:00,
2013-12-13 07:32:00,52.3,51.4,29.75,SSE,157,6.0,13.0,97,0.00,,,0.02,meteohub,2013-12-13 07:32:00,
2013-12-13 07:37:00,52.3,51.4,29.75,SSW,202,6.0,13.0,97,0.00,,,0.02,meteohub,2013-12-13 07:37:00,
2013-12-13 07:42:00,52.3,51.4,29.75,SSW,202,8.0,11.0,97,0.00,,,0.02,meteohub,2013-12-13 07:42:00,
2013-12-13 07:47:00,52.3,51.4,29.75,SSW,202,5.0,13.0,97,0.00,,,0.02,meteohub,2013-12-13 07:47:00,
2013-12-13 07:52:00,52.3,51.4,29.75,SSW,202,9.0,15.0,97,0.00,,,0.02,meteohub,2013-12-13 07:52:00,
2013-12-13 07:57:00,52.5,51.6,29.75,SSW,202,8.0,15.0,97,0.00,,,0.02,meteohub,2013-12-13 07:57:00,
2013-12-13 08:02:00,52.5,51.6,29.75,SSW,202,6.0,15.0,97,0.00,,,0.02,meteohub,2013-12-13 08:02:00,
2013-12-13 08:07:00,52.5,51.6,29.75,SSE,157,1.0,13.0,97,0.00,,,0.02,meteohub,2013-12-13 08:07:00,
2013-12-13 08:12:00,52.5,51.6,29.75,SSW,202,9.0,12.0,97,0.00,,,0.02,meteohub,2013-12-13 08:12:00,
2013-12-13 08:17:00,52.5,51.6,29.75,SSW,202,4.0,12.0,97,0.00,,,0.02,meteohub,2013-12-13 08:17:00,
2013-12-13 08:22:00,52.5,51.6,29.75,SW,225,6.0,11.0,97,0.00,,,0.02,meteohub,2013-12-13 08:22:00,
2013-12-13 08:28:00,52.5,51.6,29.75,SW,225,4.0,11.0,97,0.00,,,0.02,meteohub,2013-12-13 08:28:00,
2013-12-13 08:33:00,52.5,51.6,29.75,SSW,202,13.0,13.0,97,0.00,,,0.02,meteohub,2013-12-13 08:33:00,
2013-12-13 08:38:00,52.7,51.8,29.75,WSW,247,8.0,13.0,97,0.00,,,0.02,meteohub,2013-12-13 08:38:00,
2013-12-13 08:43:00,52.7,51.8,29.75,WSW,247,8.0,14.0,97,0.00,,,0.02,meteohub,2013-12-13 08:43:00,
2013-12-13 08:48:00,52.7,51.8,29.75,SSW,202,10.0,14.0,97,0.00,,,0.02,meteohub,2013-12-13 08:48:00,
2013-12-13 08:53:00,52.7,51.8,29.75,SSW,202,4.0,14.0,97,0.00,,,0.02,meteohub,2013-12-13 08:53:00,
2013-12-13 08:58:00,52.7,51.8,29.75,SSW,202,10.0,11.0,97,0.00,,,0.02,meteohub,2013-12-13 08:58:00,
2013-12-13 09:03:00,52.9,52.0,29.75,SSW,202,11.0,15.0,97,0.00,,,0.02,meteohub,2013-12-13 09:03:00,
2013-12-13 09:08:00,52.9,52.0,29.75,SSW,202,10.0,15.0,97,0.00,,,0.02,meteohub,2013-12-13 09:08:00,
2013-12-13 09:13:00,52.9,52.0,29.75,SSW,202,9.0,15.0,97,0.00,,,0.02,meteohub,2013-12-13 09:13:00,
2013-12-13 09:18:00,52.9,52.0,29.75,SSW,202,7.0,13.0,97,0.00,,,0.02,meteohub,2013-12-13 09:18:00,
2013-12-13 09:23:00,52.9,52.0,29.75,SW,225,7.0,12.0,97,0.00,,,0.02,meteohub,2013-12-13 09:23:00,
2013-12-13 09:28:00,52.9,52.0,29.75,SSW,202,6.0,12.0,97,0.00,,,0.02,meteohub,2013-12-13 09:28:00,
2013-12-13 09:34:00,52.9,52.0,29.75,SW,225,4.0,12.0,97,0.00,,,0.02,meteohub,2013-12-13 09:34:00,
2013-12-13 09:39:00,52.9,52.0,29.75,SW,225,7.0,11.0,97,0.00,,,0.02,meteohub,2013-12-13 09:39:00,
2013-12-13 09:44:00,52.9,52.0,29.75,SSW,202,4.0,10.0,97,0.00,,,0.02,meteohub,2013-12-13 09:44:00,
2013-12-13 09:49:00,52.9,52.0,29.75,SW,225,9.0,10.0,97,0.00,,,0.02,meteohub,2013-12-13 09:49:00,
2013-12-13 09:54:00,52.9,52.0,29.75,SSW,202,6.0,15.0,97,0.00,,,0.02,meteohub,2013-12-13 09:54:00,
2013-12-13 09:59:00,52.9,52.0,29.75,NNE,22,5.0,15.0,97,0.00,,,0.02,meteohub,2013-12-13 09:59:00,
2013-12-13 10:04:00,52.9,52.0,29.75,SSW,202,8.0,15.0,97,0.00,,,0.02,meteohub,2013-12-13 10:04:00,
2013-12-13 10:09:00,53.1,52.2,29.75,SSW,202,7.0,10.0,97,0.00,,,0.02,meteohub,2013-12-13 10:09:00,
2013-12-13 10:14:00,53.1,52.0,29.75,SW,225,9.0,14.0,96,0.00,,,0.02,meteohub,2013-12-13 10:14:00,
2013-12-13 10:19:00,53.2,52.2,29.75,SSW,202,13.0,14.0,96,0.00,,,0.02,meteohub,2013-12-13 10:19:00,
2013-12-13 10:24:00,53.2,52.2,29.75,SW,225,7.0,14.0,96,0.00,,,0.02,meteohub,2013-12-13 10:24:00,
2013-12-13 10:29:00,53.4,52.3,29.75,WSW,247,11.0,15.0,96,0.00,,,0.02,meteohub,2013-12-13 10:29:00,
2013-12-13 10:35:00,53.6,52.2,29.72,SSW,202,17.0,17.0,95,0.00,,,0.02,meteohub,2013-12-13 10:35:00,
2013-12-13 10:40:00,53.6,52.2,29.72,SSW,202,6.0,17.0,95,0.00,,,0.02,meteohub,2013-12-13 10:40:00,
2013-12-13 10:45:00,53.6,52.2,29.72,SW,225,11.0,17.0,95,0.00,,,0.02,meteohub,2013-12-13 10:45:00,
2013-12-13 10:50:00,53.6,52.2,29.72,WSW,247,6.0,16.0,95,0.00,,,0.02,meteohub,2013-12-13 10:50:00,
2013-12-13 10:55:00,53.6,52.2,29.72,SSW,202,9.0,16.0,95,0.00,,,0.02,meteohub,2013-12-13 10:55:00,
2013-12-13 11:00:00,53.6,52.2,29.72,SSW,202,16.0,17.0,95,0.00,,,0.02,meteohub,2013-12-13 11:00:00,
2013-12-13 11:05:00,53.6,52.0,29.72,SW,225,6.0,17.0,94,0.00,,,0.02,meteohub,2013-12-13 11:05:00,
2013-12-13 11:10:00,53.6,52.0,29.72,SSW,202,13.0,17.0,94,0.00,,,0.02,meteohub,2013-12-13 11:10:00,
2013-12-13 11:15:00,53.6,52.0,29.72,SSW,202,12.0,17.0,94,0.00,,,0.02,meteohub,2013-12-13 11:15:00,
2013-12-13 11:20:00,53.4,51.8,29.72,WSW,247,11.0,17.0,94,0.00,,,0.02,meteohub,2013-12-13 11:20:00,
2013-12-13 11:25:00,53.4,51.8,29.72,SSW,202,12.0,17.0,94,0.00,,,0.02,meteohub,2013-12-13 11:25:00,
2013-12-13 11:30:00,53.4,51.8,29.72,SSW,202,15.0,17.0,94,0.00,,,0.02,meteohub,2013-12-13 11:30:00,
2013-12-13 11:35:00,53.4,51.8,29.72,SW,225,8.0,17.0,94,0.00,,,0.02,meteohub,2013-12-13 11:35:00,
2013-12-13 11:41:00,53.4,51.8,29.72,SSW,202,11.0,17.0,94,0.00,,,0.02,meteohub,2013-12-13 11:41:00,
2013-12-13 11:46:00,53.4,51.8,29.72,SSW,202,16.0,19.0,94,0.00,,,0.02,meteohub,2013-12-13 11:46:00,
2013-12-13 11:51:00,53.4,51.8,29.69,SSW,202,13.0,20.0,94,0.00,,,0.02,meteohub,2013-12-13 11:51:00,
2013-12-13 11:56:00,53.4,51.8,29.69,SSW,202,8.0,20.0,94,0.00,,,0.02,meteohub,2013-12-13 11:56:00,
2013-12-13 12:01:00,53.6,51.6,29.69,WSW,247,8.0,20.0,93,0.00,,,0.02,meteohub,2013-12-13 12:01:00,
2013-12-13 12:06:00,53.6,51.6,29.69,SSW,202,11.0,19.0,93,0.00,,,0.02,meteohub,2013-12-13 12:06:00,
2013-12-13 12:11:00,53.4,51.4,29.69,SSW,202,6.0,19.0,93,0.00,,,0.02,meteohub,2013-12-13 12:11:00,
2013-12-13 12:16:00,53.4,51.4,29.69,SW,225,8.0,18.0,93,0.00,,,0.02,meteohub,2013-12-13 12:16:00,
2013-12-13 12:21:00,53.2,51.3,29.69,SW,225,9.0,22.0,93,0.00,,,0.02,meteohub,2013-12-13 12:21:00,
2013-12-13 12:25:00,53.4,51.4,29.69,SSW,202,20.0,22.0,93,0.00,,,0.02,meteohub,2013-12-13 12:25:00,
2013-12-13 12:30:00,53.4,51.4,29.69,SSW,202,15.0,22.0,93,0.00,,,0.02,meteohub,2013-12-13 12:30:00,
2013-12-13 12:35:00,53.4,51.1,29.69,SSW,202,15.0,20.0,92,0.00,,,0.02,meteohub,2013-12-13 12:35:00,
2013-12-13 12:40:00,53.4,51.1,29.69,SSW,202,16.0,20.0,92,0.00,,,0.02,meteohub,2013-12-13 12:40:00,
2013-12-13 12:45:00,53.4,51.1,29.69,SSW,202,13.0,17.0,92,0.00,,,0.02,meteohub,2013-12-13 12:45:00,
2013-12-13 12:50:00,53.4,51.1,29.69,SSW,202,13.0,17.0,92,0.00,,,0.02,meteohub,2013-12-13 12:50:00,
2013-12-13 12:56:00,53.4,51.1,29.69,South,180,14.0,17.0,92,0.00,,,0.02,meteohub,2013-12-13 12:56:00,
2013-12-13 13:01:00,53.4,51.1,29.69,SSW,202,16.0,17.0,92,0.00,,,0.02,meteohub,2013-12-13 13:01:00,
2013-12-13 13:06:00,53.4,51.1,29.66,SSW,202,11.0,23.0,92,0.00,,,0.02,meteohub,2013-12-13 13:06:00,
2013-12-13 13:11:00,53.6,51.1,29.66,SW,225,8.0,23.0,91,0.00,,,0.02,meteohub,2013-12-13 13:11:00,
2013-12-13 13:16:00,53.6,51.3,29.66,SSW,202,14.0,23.0,92,0.00,,,0.02,meteohub,2013-12-13 13:16:00,
2013-12-13 13:21:00,53.6,51.3,29.66,WSW,247,9.0,22.0,92,0.00,,,0.02,meteohub,2013-12-13 13:21:00,
2013-12-13 13:26:00,53.6,51.3,29.66,SSW,202,11.0,22.0,92,0.00,,,0.02,meteohub,2013-12-13 13:26:00,
2013-12-13 13:31:00,53.4,51.1,29.66,WSW,247,7.0,16.0,92,0.00,,,0.02,meteohub,2013-12-13 13:31:00,
2013-12-13 13:36:00,53.4,51.4,29.66,SSW,202,10.0,13.0,93,0.00,,,0.02,meteohub,2013-12-13 13:36:00,
2013-12-13 13:41:00,53.2,51.3,29.66,SSW,202,6.0,17.0,93,0.00,,,0.02,meteohub,2013-12-13 13:41:00,
2013-12-13 13:46:00,53.2,51.3,29.66,SSW,202,6.0,17.0,93,0.00,,,0.02,meteohub,2013-12-13 13:46:00,
2013-12-13 13:51:00,53.2,51.3,29.66,SSW,202,6.0,17.0,93,0.00,,,0.02,meteohub,2013-12-13 13:51:00,
2013-12-13 13:57:00,53.1,51.4,29.66,SW,225,18.0,20.0,94,0.00,,,0.02,meteohub,2013-12-13 13:57:00,
2013-12-13 14:02:00,52.5,50.2,29.66,WSW,247,10.0,28.0,92,0.00,,,0.02,meteohub,2013-12-13 14:02:00,
2013-12-13 14:07:00,52.2,49.8,29.69,WSW,247,9.0,28.0,92,0.00,,,0.02,meteohub,2013-12-13 14:07:00,
2013-12-13 14:12:00,51.6,49.6,29.69,WSW,247,10.0,28.0,93,0.00,,,0.02,meteohub,2013-12-13 14:12:00,
2013-12-13 14:17:00,51.4,49.5,29.69,SW,225,10.0,17.0,93,0.00,,,0.02,meteohub,2013-12-13 14:17:00,
2013-12-13 14:22:00,51.3,49.3,29.69,WSW,247,9.0,17.0,93,0.00,,,0.02,meteohub,2013-12-13 14:22:00,
2013-12-13 14:27:00,51.1,49.1,29.69,West,270,6.0,17.0,93,0.00,,,0.02,meteohub,2013-12-13 14:27:00,
2013-12-13 14:32:00,50.9,48.9,29.69,WSW,247,8.0,15.0,93,0.00,,,0.02,meteohub,2013-12-13 14:32:00,
2013-12-13 14:37:00,50.9,48.9,29.69,WSW,247,5.0,10.0,93,0.00,,,0.02,meteohub,2013-12-13 14:37:00,
2013-12-13 14:42:00,50.7,49.1,29.69,WSW,247,6.0,11.0,94,0.00,,,0.02,meteohub,2013-12-13 14:42:00,
2013-12-13 14:47:00,50.7,49.1,29.69,WSW,247,6.0,11.0,94,0.00,,,0.02,meteohub,2013-12-13 14:47:00,
2013-12-13 14:52:00,50.9,50.4,29.69,SW,225,10.0,12.0,98,0.00,,,0.02,meteohub,2013-12-13 14:52:00,
2013-12-13 14:57:00,50.4,48.7,29.69,WSW,247,11.0,13.0,94,0.00,,,0.02,meteohub,2013-12-13 14:57:00,
2013-12-13 15:02:00,50.4,48.4,29.69,SW,225,6.0,13.0,93,0.00,,,0.02,meteohub,2013-12-13 15:02:00,
2013-12-13 15:07:00,50.2,48.2,29.69,SW,225,10.0,13.0,93,0.00,,,0.02,meteohub,2013-12-13 15:07:00,
2013-12-13 15:12:00,50.2,48.2,29.69,SW,225,10.0,12.0,93,0.00,,,0.02,meteohub,2013-12-13 15:12:00,
2013-12-13 15:17:00,50.0,48.0,29.69,SW,225,7.0,12.0,93,0.00,,,0.02,meteohub,2013-12-13 15:17:00,
2013-12-13 15:23:00,49.8,47.8,29.69,SSW,202,6.0,12.0,93,0.00,,,0.02,meteohub,2013-12-13 15:23:00,
2013-12-13 15:28:00,49.6,47.7,29.69,SW,225,9.0,12.0,93,0.00,,,0.02,meteohub,2013-12-13 15:28:00,
2013-12-13 15:33:00,49.6,47.7,29.69,SW,225,10.0,11.0,93,0.00,,,0.02,meteohub,2013-12-13 15:33:00,
2013-12-13 15:38:00,49.5,47.3,29.72,WSW,247,11.0,15.0,92,0.00,,,0.02,meteohub,2013-12-13 15:38:00,
2013-12-13 15:43:00,49.3,47.1,29.72,WSW,247,11.0,19.0,92,0.00,,,0.02,meteohub,2013-12-13 15:43:00,
2013-12-13 15:48:00,48.9,46.0,29.72,SW,225,13.0,19.0,90,0.00,,,0.02,meteohub,2013-12-13 15:48:00,
2013-12-13 15:53:00,48.7,45.9,29.72,WSW,247,8.0,19.0,90,0.00,,,0.02,meteohub,2013-12-13 15:53:00,
2013-12-13 15:58:00,48.4,45.5,29.72,WSW,247,9.0,17.0,90,0.00,,,0.02,meteohub,2013-12-13 15:58:00,
2013-12-13 16:03:00,48.2,45.1,29.72,WSW,247,11.0,15.0,89,0.00,,,0.02,meteohub,2013-12-13 16:03:00,
2013-12-13 16:08:00,48.2,45.1,29.72,WSW,247,9.0,13.0,89,0.00,,,0.02,meteohub,2013-12-13 16:08:00,
2013-12-13 16:13:00,47.8,44.8,29.72,WSW,247,7.0,13.0,89,0.00,,,0.02,meteohub,2013-12-13 16:13:00,
2013-12-13 16:19:00,47.7,44.6,29.72,SW,225,7.0,13.0,89,0.00,,,0.02,meteohub,2013-12-13 16:19:00,
2013-12-13 16:24:00,47.5,44.4,29.69,SW,225,6.0,11.0,89,0.00,,,0.02,meteohub,2013-12-13 16:24:00,
2013-12-13 16:29:00,47.3,44.2,29.69,WSW,247,10.0,11.0,89,0.00,,,0.02,meteohub,2013-12-13 16:29:00,
2013-12-13 16:34:00,47.1,44.4,29.72,SW,225,9.0,13.0,90,0.00,,,0.02,meteohub,2013-12-13 16:34:00,
2013-12-13 16:39:00,47.1,44.4,29.72,WSW,247,15.0,15.0,90,0.00,,,0.02,meteohub,2013-12-13 16:39:00,
2013-12-13 16:44:00,46.9,44.2,29.72,WSW,247,11.0,15.0,90,0.00,,,0.02,meteohub,2013-12-13 16:44:00,
2013-12-13 16:49:00,46.9,44.2,29.72,WSW,247,10.0,15.0,90,0.00,,,0.02,meteohub,2013-12-13 16:49:00,
2013-12-13 16:54:00,46.8,44.2,29.72,NW,315,8.0,15.0,91,0.00,,,0.02,meteohub,2013-12-13 16:54:00,
2013-12-13 16:59:00,46.8,44.2,29.72,WSW,247,6.0,13.0,91,0.00,,,0.02,meteohub,2013-12-13 16:59:00,
2013-12-13 17:04:00,46.6,44.1,29.72,SW,225,8.0,11.0,91,0.00,,,0.02,meteohub,2013-12-13 17:04:00,
2013-12-13 17:09:00,46.4,43.9,29.72,SW,225,8.0,11.0,91,0.00,,,0.02,meteohub,2013-12-13 17:09:00,
2013-12-13 17:15:00,46.2,43.7,29.72,WSW,247,8.0,11.0,91,0.00,,,0.02,meteohub,2013-12-13 17:15:00,
2013-12-13 17:20:00,46.2,43.7,29.72,WSW,247,10.0,17.0,91,0.00,,,0.02,meteohub,2013-12-13 17:20:00,
2013-12-13 17:25:00,46.2,43.7,29.72,WSW,247,12.0,17.0,91,0.00,,,0.02,meteohub,2013-12-13 17:25:00,
2013-12-13 17:30:00,46.0,43.5,29.72,WSW,247,8.0,17.0,91,0.00,,,0.02,meteohub,2013-12-13 17:30:00,
2013-12-13 17:35:00,46.0,43.5,29.72,WSW,247,9.0,16.0,91,0.00,,,0.02,meteohub,2013-12-13 17:35:00,
2013-12-13 17:40:00,46.0,43.5,29.72,WSW,247,18.0,18.0,91,0.00,,,0.02,meteohub,2013-12-13 17:40:00,
2013-12-13 17:45:00,45.9,43.3,29.72,WSW,247,17.0,18.0,91,0.00,,,0.02,meteohub,2013-12-13 17:45:00,
2013-12-13 17:50:00,45.9,43.2,29.72,SW,225,13.0,18.0,90,0.00,,,0.02,meteohub,2013-12-13 17:50:00,
2013-12-13 17:55:00,45.9,43.2,29.72,SW,225,7.0,18.0,90,0.00,,,0.02,meteohub,2013-12-13 17:55:00,
2013-12-13 18:00:00,45.7,43.0,29.72,WSW,247,10.0,17.0,90,0.00,,,0.02,meteohub,2013-12-13 18:00:00,
2013-12-13 18:06:00,45.5,42.8,29.75,WSW,247,10.0,14.0,90,0.00,,,0.02,meteohub,2013-12-13 18:06:00,
2013-12-13 18:11:00,45.5,42.8,29.75,WSW,247,13.0,17.0,90,0.00,,,0.02,meteohub,2013-12-13 18:11:00,
2013-12-13 18:16:00,45.5,42.4,29.75,WSW,247,6.0,17.0,89,0.00,,,0.02,meteohub,2013-12-13 18:16:00,
2013-12-13 18:21:00,45.5,42.4,29.72,WSW,247,6.0,17.0,89,0.00,,,0.02,meteohub,2013-12-13 18:21:00,
2013-12-13 18:26:00,45.3,42.3,29.72,WSW,247,10.0,13.0,89,0.00,,,0.02,meteohub,2013-12-13 18:26:00,
2013-12-13 18:31:00,45.3,42.3,29.72,SW,225,6.0,15.0,89,0.00,,,0.02,meteohub,2013-12-13 18:31:00,
2013-12-13 18:36:00,45.3,42.3,29.75,WSW,247,9.0,15.0,89,0.00,,,0.02,meteohub,2013-12-13 18:36:00,
2013-12-13 18:41:00,45.3,42.3,29.75,WSW,247,5.0,15.0,89,0.00,,,0.02,meteohub,2013-12-13 18:41:00,
2013-12-13 18:46:00,45.3,42.3,29.75,SW,225,8.0,16.0,89,0.00,,,0.02,meteohub,2013-12-13 18:46:00,
2013-12-13 18:51:00,45.3,42.3,29.75,SSW,202,11.0,16.0,89,0.00,,,0.02,meteohub,2013-12-13 18:51:00,
2013-12-13 18:56:00,45.3,42.6,29.75,WSW,247,10.0,16.0,90,0.00,,,0.02,meteohub,2013-12-13 18:56:00,
2013-12-13 19:02:00,45.5,42.8,29.75,WSW,247,8.0,15.0,90,0.00,,,0.02,meteohub,2013-12-13 19:02:00,
2013-12-13 19:07:00,45.5,42.4,29.75,SW,225,12.0,19.0,89,0.00,,,0.02,meteohub,2013-12-13 19:07:00,
2013-12-13 19:12:00,45.5,42.4,29.75,WSW,247,13.0,19.0,89,0.00,,,0.02,meteohub,2013-12-13 19:12:00,
2013-12-13 19:17:00,45.5,42.4,29.75,WSW,247,18.0,26.0,89,0.00,,,0.02,meteohub,2013-12-13 19:17:00,
2013-12-13 19:22:00,45.3,41.7,29.75,WSW,247,8.0,26.0,87,0.00,,,0.02,meteohub,2013-12-13 19:22:00,
2013-12-13 19:27:00,45.3,41.7,29.75,WSW,247,16.0,26.0,87,0.00,,,0.02,meteohub,2013-12-13 19:27:00,
2013-12-13 19:32:00,45.1,41.2,29.75,WSW,247,17.0,23.0,86,0.00,,,0.02,meteohub,2013-12-13 19:32:00,
2013-12-13 19:37:00,45.1,41.2,29.75,WSW,247,8.0,20.0,86,0.00,,,0.02,meteohub,2013-12-13 19:37:00,
2013-12-13 19:42:00,44.8,40.8,29.75,SSW,202,9.0,20.0,86,0.00,,,0.02,meteohub,2013-12-13 19:42:00,
2013-12-13 19:47:00,44.6,40.6,29.75,WSW,247,13.0,20.0,86,0.00,,,0.02,meteohub,2013-12-13 19:47:00,
2013-12-13 19:52:00,44.6,40.6,29.75,WSW,247,15.0,18.0,86,0.00,,,0.02,meteohub,2013-12-13 19:52:00,
2013-12-13 19:58:00,44.6,40.6,29.75,SW,225,10.0,20.0,86,0.00,,,0.02,meteohub,2013-12-13 19:58:00,
2013-12-13 20:03:00,44.4,40.5,29.75,WSW,247,12.0,20.0,86,0.00,,,0.02,meteohub,2013-12-13 20:03:00,
2013-12-13 20:08:00,44.2,40.3,29.75,WSW,247,8.0,20.0,86,0.00,,,0.02,meteohub,2013-12-13 20:08:00,
2013-12-13 20:13:00,44.1,40.1,29.75,SW,225,11.0,15.0,86,0.00,,,0.02,meteohub,2013-12-13 20:13:00,
2013-12-13 20:18:00,43.9,39.9,29.75,SW,225,5.0,16.0,86,0.00,,,0.02,meteohub,2013-12-13 20:18:00,
2013-12-13 20:23:00,43.7,39.7,29.75,SW,225,11.0,16.0,86,0.00,,,0.02,meteohub,2013-12-13 20:23:00,
2013-12-13 20:28:00,43.7,39.7,29.75,WSW,247,10.0,16.0,86,0.00,,,0.02,meteohub,2013-12-13 20:28:00,
2013-12-13 20:33:00,43.7,39.7,29.75,WSW,247,13.0,14.0,86,0.00,,,0.02,meteohub,2013-12-13 20:33:00,
2013-12-13 20:38:00,43.7,40.1,29.78,WSW,247,9.0,13.0,87,0.00,,,0.02,meteohub,2013-12-13 20:38:00,
2013-12-13 20:43:00,43.5,39.9,29.78,WSW,247,12.0,16.0,87,0.00,,,0.02,meteohub,2013-12-13 20:43:00,
2013-12-13 20:49:00,43.5,39.9,29.78,SW,225,11.0,16.0,87,0.00,,,0.02,meteohub,2013-12-13 20:49:00,
2013-12-13 20:54:00,43.5,39.9,29.78,West,270,12.0,16.0,87,0.00,,,0.02,meteohub,2013-12-13 20:54:00,
2013-12-13 20:59:00,43.3,39.7,29.78,SSW,202,7.0,21.0,87,0.00,,,0.02,meteohub,2013-12-13 20:59:00,
2013-12-13 21:04:00,43.3,39.7,29.78,SW,225,8.0,21.0,87,0.00,,,0.02,meteohub,2013-12-13 21:04:00,
2013-12-13 21:09:00,43.5,39.9,29.78,WSW,247,8.0,21.0,87,0.00,,,0.02,meteohub,2013-12-13 21:09:00,
2013-12-13 21:14:00,43.5,39.9,29.78,SW,225,10.0,17.0,87,0.00,,,0.02,meteohub,2013-12-13 21:14:00,
2013-12-13 21:19:00,43.5,39.9,29.78,SW,225,11.0,16.0,87,0.00,,,0.02,meteohub,2013-12-13 21:19:00,
2013-12-13 21:24:00,43.5,39.9,29.78,SSW,202,11.0,15.0,87,0.00,,,0.02,meteohub,2013-12-13 21:24:00,
2013-12-13 21:29:00,43.5,39.9,29.78,SW,225,10.0,15.0,87,0.00,,,0.02,meteohub,2013-12-13 21:29:00,
2013-12-13 21:34:00,43.5,39.9,29.78,WSW,247,6.0,18.0,87,0.00,,,0.02,meteohub,2013-12-13 21:34:00,
2013-12-13 21:40:00,43.5,39.9,29.78,SSW,202,11.0,19.0,87,0.00,,,0.02,meteohub,2013-12-13 21:40:00,
2013-12-13 21:45:00,43.3,39.4,29.78,SW,225,10.0,19.0,86,0.00,,,0.02,meteohub,2013-12-13 21:45:00,
2013-12-13 21:50:00,43.3,39.4,29.78,SW,225,6.0,19.0,86,0.00,,,0.02,meteohub,2013-12-13 21:50:00,
2013-12-13 21:55:00,43.2,39.2,29.78,SW,225,4.0,13.0,86,0.00,,,0.02,meteohub,2013-12-13 21:55:00,
2013-12-13 22:00:00,43.0,39.0,29.78,WSW,247,10.0,13.0,86,0.00,,,0.02,meteohub,2013-12-13 22:00:00,
2013-12-13 22:06:00,42.8,38.8,29.78,SW,225,6.0,12.0,86,0.00,,,0.02,meteohub,2013-12-13 22:06:00,
2013-12-13 22:11:00,42.8,38.8,29.78,SW,225,6.0,13.0,86,0.00,,,0.02,meteohub,2013-12-13 22:11:00,
2013-12-13 22:16:00,42.8,38.8,29.78,SW,225,7.0,13.0,86,0.00,,,0.02,meteohub,2013-12-13 22:16:00,
2013-12-13 22:21:00,42.8,38.8,29.81,SSW,202,10.0,13.0,86,0.00,,,0.02,meteohub,2013-12-13 22:21:00,
2013-12-13 22:26:00,42.8,38.8,29.81,SW,225,10.0,13.0,86,0.00,,,0.02,meteohub,2013-12-13 22:26:00,
2013-12-13 22:31:00,42.6,39.0,29.81,SW,225,9.0,13.0,87,0.00,,,0.02,meteohub,2013-12-13 22:31:00,
2013-12-13 22:37:00,42.6,39.0,29.81,SW,225,12.0,17.0,87,0.00,,,0.02,meteohub,2013-12-13 22:37:00,
2013-12-13 22:42:00,42.6,39.0,29.81,WSW,247,6.0,17.0,87,0.00,,,0.02,meteohub,2013-12-13 22:42:00,
2013-12-13 22:47:00,42.6,39.0,29.81,SSW,202,13.0,17.0,87,0.00,,,0.02,meteohub,2013-12-13 22:47:00,
2013-12-13 22:52:00,42.4,38.8,29.81,SW,225,13.0,17.0,87,0.00,,,0.02,meteohub,2013-12-13 22:52:00,
2013-12-13 22:57:00,42.4,38.5,29.81,WSW,247,10.0,17.0,86,0.00,,,0.02,meteohub,2013-12-13 22:57:00,
2013-12-13 23:02:00,42.4,38.8,29.81,SSW,202,8.0,16.0,87,0.00,,,0.02,meteohub,2013-12-13 23:02:00,
2013-12-13 23:07:00,42.4,38.8,29.81,SW,225,10.0,16.0,87,0.00,,,0.02,meteohub,2013-12-13 23:07:00,
2013-12-13 23:12:00,42.4,38.8,29.81,SW,225,12.0,16.0,87,0.00,,,0.02,meteohub,2013-12-13 23:12:00,
2013-12-13 23:17:00,42.1,38.5,29.81,SW,225,17.0,17.0,87,0.00,,,0.03,meteohub,2013-12-13 23:17:00,
2013-12-13 23:22:00,42.1,38.8,29.81,SSW,202,12.0,17.0,88,0.00,,,0.03,meteohub,2013-12-13 23:22:00,
2013-12-13 23:27:00,41.9,38.7,29.81,SW,225,8.0,18.0,88,0.00,,,0.03,meteohub,2013-12-13 23:27:00,
2013-12-13 23:32:00,41.9,38.8,29.81,SSW,202,14.0,18.0,89,0.00,,,0.03,meteohub,2013-12-13 23:32:00,
2013-12-13 23:37:00,42.1,39.0,29.81,SW,225,14.0,19.0,89,0.00,,,0.03,meteohub,2013-12-13 23:37:00,
2013-12-13 23:42:00,42.1,39.0,29.81,SSW,202,13.0,19.0,89,0.00,,,0.03,meteohub,2013-12-13 23:42:00,
2013-12-13 23:47:00,41.9,38.8,29.81,SW,225,16.0,19.0,89,0.00,,,0.03,meteohub,2013-12-13 23:47:00,
2013-12-13 23:52:00,41.9,38.8,29.81,SW,225,17.0,20.0,89,0.00,,,0.03,meteohub,2013-12-13 23:52:00,
2013-12-13 23:57:00,41.7,38.7,29.81,SSW,202,15.0,20.0,89,0.00,,,0.03,meteohub,2013-12-13 23:57:00,